Time;durP1;ratioP1;P1;durP2;ratioP2;P2;SDS_P1;SDS_P2;PMS_P1;PMS_P2;Temp;Humidity;BMP_temperature;BMP_pressure;BME280_temperature;BME280_humidity;BME280_pressure;Samples;Min_cycle;Max_cycle;Signal;HPM_P1;HPM_P2
2021/12/25 00:01:00;;;;;;;;;2.00;2.00;;;;;17.19;63.65;100659.31;5053501;28;8935;-61
2021/12/25 00:03:26;;;;;;;;;3.00;3.00;;;;;17.22;63.66;100659.28;5054417;28;9109;-60
2021/12/25 00:05:55;;;;;;;;;3.00;3.00;;;;;17.21;63.70;100657.50;5053595;28;9129;-60
2021/12/25 00:08:28;;;;;;;;;2.67;2.67;;;;;17.23;63.26;100664.56;5054334;28;10637;-60
2021/12/25 00:10:56;;;;;;;;;0.33;0.33;;;;;17.25;63.18;100672.44;5054166;28;9093;-60
2021/12/25 00:13:21;;;;;;;;;3.00;3.00;;;;;17.21;63.46;100662.78;5053638;28;8978;-61
2021/12/25 00:15:48;;;;;;;;;3.00;3.00;;;;;17.20;63.64;100675.13;5054043;28;9018;-61
2021/12/25 00:18:13;;;;;;;;;4.00;4.00;;;;;17.22;63.60;100670.72;5054092;28;8894;-60
2021/12/25 00:20:39;;;;;;;;;3.00;3.00;;;;;17.20;63.57;100669.84;5053658;28;9181;-60
2021/12/25 00:23:07;;;;;;;;;2.00;2.00;;;;;17.19;63.37;100677.78;5053951;28;8777;-60
2021/12/25 00:25:37;;;;;;;;;4.67;4.00;;;;;17.20;63.46;100674.25;5053736;28;9082;-60
2021/12/25 00:28:18;;;;;;;;;2.00;2.00;;;;;17.24;63.34;100673.34;5053085;28;9255;-60
2021/12/25 00:31:00;;;;;;;;;4.00;3.67;;;;;17.20;63.17;100664.59;5053573;28;9911;-59
2021/12/25 00:33:37;;;;;;;;;3.67;3.67;;;;;17.19;63.12;100668.09;5054076;28;9081;-61
2021/12/25 00:36:03;;;;;;;;;3.00;3.00;;;;;17.17;63.16;100672.50;5052533;28;9361;-60
2021/12/25 00:38:28;;;;;;;;;2.67;2.67;;;;;17.18;63.16;100668.97;5053779;28;9248;-60
2021/12/25 00:40:53;;;;;;;;;3.00;3.00;;;;;17.14;63.22;100675.16;5052752;28;9002;-60
2021/12/25 00:43:19;;;;;;;;;2.67;2.67;;;;;17.15;63.22;100668.13;5053831;28;8764;-60
2021/12/25 00:45:44;;;;;;;;;3.00;2.00;;;;;17.19;63.24;100676.00;5053119;28;8806;-60
2021/12/25 00:48:09;;;;;;;;;3.00;0.33;;;;;17.12;63.30;100676.94;5052944;28;8758;-61
2021/12/25 00:50:35;;;;;;;;;2.00;2.00;;;;;17.14;62.97;100680.44;5053772;28;8778;-61
2021/12/25 00:53:00;;;;;;;;;2.67;2.67;;;;;17.15;63.25;100676.91;5053207;28;8774;-61
2021/12/25 00:55:25;;;;;;;;;4.33;2.00;;;;;17.14;62.71;100680.44;5052156;28;8782;-60
2021/12/25 00:57:52;;;;;;;;;2.00;2.00;;;;;17.14;63.13;100691.00;5052948;28;8777;-60
2021/12/25 01:00:21;;;;;;;;;4.33;4.00;;;;;17.21;62.82;100684.78;5052920;28;8766;-60
2021/12/25 01:02:47;;;;;;;;;3.00;3.00;;;;;17.19;62.74;100677.78;5052591;28;9091;-61
2021/12/25 01:05:14;;;;;;;;;3.00;3.00;;;;;17.15;62.71;100679.56;5052888;28;9115;-60
2021/12/25 01:07:42;;;;;;;;;2.67;2.67;;;;;17.16;62.99;100678.69;5052785;28;11436;-61
2021/12/25 01:10:13;;;;;;;;;5.00;5.00;;;;;17.19;62.89;100683.94;5052612;28;9168;-61
2021/12/25 01:13:08;;;;;;;;;2.33;2.33;;;;;17.15;62.59;100690.13;5052941;28;9253;-61
2021/12/25 01:15:59;;;;;;;;;3.67;2.00;;;;;17.13;62.91;100693.66;5052467;28;9105;-61
2021/12/25 01:31:20;;;;;;;;;4.33;3.33;;;;;17.14;62.64;100682.19;5052050;28;9286;-61
2021/12/25 01:34:09;;;;;;;;;3.00;3.00;;;;;17.13;62.38;100688.38;5052685;28;9163;-61
2021/12/25 01:36:54;;;;;;;;;3.00;3.00;;;;;17.16;62.63;100691.00;5052171;28;9144;-61
2021/12/25 01:49:56;;;;;;;;;3.33;3.00;;;;;17.15;62.23;100691.88;5052323;28;9171;-61
2021/12/25 01:52:29;;;;;;;;;2.00;2.00;;;;;17.14;62.27;100677.81;5051600;28;9087;-60
2021/12/25 01:55:00;;;;;;;;;2.00;2.00;;;;;17.16;62.47;100677.81;5052414;28;9161;-60
2021/12/25 01:57:27;;;;;;;;;2.00;2.00;;;;;17.12;62.58;100665.53;5052326;28;9039;-60
2021/12/25 01:59:53;;;;;;;;;3.00;3.00;;;;;17.11;62.30;100662.00;5051633;28;9087;-60
2021/12/25 02:02:18;;;;;;;;;2.00;2.00;;;;;17.11;62.07;100655.84;5052355;28;9324;-60
2021/12/25 02:04:44;;;;;;;;;4.67;4.00;;;;;17.10;62.02;100656.72;5051782;28;8790;-60
2021/12/25 02:07:09;;;;;;;;;3.00;3.00;;;;;17.10;62.15;100662.88;5051283;28;8773;-60
2021/12/25 02:09:35;;;;;;;;;2.00;2.00;;;;;17.07;62.05;100675.22;5052096;28;8770;-61
2021/12/25 02:12:00;;;;;;;;;2.00;2.00;;;;;17.08;62.24;100679.63;5051165;28;8754;-60
2021/12/25 02:14:26;;;;;;;;;3.00;3.00;;;;;17.10;61.87;100689.25;5051482;28;8890;-60
2021/12/25 02:17:00;;;;;;;;;3.67;3.00;;;;;17.08;62.19;100677.88;5051724;28;8762;-60
2021/12/25 02:19:41;;;;;;;;;5.00;5.00;;;;;17.05;61.99;100685.81;5051349;28;8773;-61
2021/12/25 02:22:08;;;;;;;;;3.00;3.00;;;;;17.08;61.94;100687.53;5052046;28;9125;-61
2021/12/25 02:24:36;;;;;;;;;2.00;2.00;;;;;17.09;61.89;100686.66;5051849;28;8978;-61
2021/12/25 02:27:02;;;;;;;;;2.67;2.67;;;;;17.08;61.80;100692.81;5051064;28;9251;-60
2021/12/25 02:29:28;;;;;;;;;2.00;2.00;;;;;17.05;61.85;100698.13;5051959;28;9107;-60
2021/12/25 02:31:54;;;;;;;;;2.00;2.00;;;;;17.05;61.85;100698.13;5051529;28;9009;-60
2021/12/25 02:34:19;;;;;;;;;3.00;3.00;;;;;17.06;62.11;100700.72;5051307;28;8892;-61
2021/12/25 02:36:44;;;;;;;;;2.67;1.67;;;;;17.03;61.96;100690.19;5051170;28;8828;-61
2021/12/25 02:39:10;;;;;;;;;3.00;3.00;;;;;17.07;61.93;100696.31;5051722;28;9576;-61
2021/12/25 02:41:35;;;;;;;;;3.00;2.67;;;;;17.03;61.75;100705.16;5051004;28;8792;-61
2021/12/25 02:44:00;;;;;;;;;3.00;3.00;;;;;17.04;61.93;100707.78;5051409;28;8785;-61
2021/12/25 02:46:26;;;;;;;;;2.67;2.00;;;;;17.13;61.49;100706.84;5051640;28;9525;-60
2021/12/25 02:48:58;;;;;;;;;3.00;2.00;;;;;17.09;61.47;100697.22;5050540;28;8762;-61
2021/12/25 02:51:24;;;;;;;;;3.00;3.00;;;;;17.06;61.84;100706.00;5051494;28;9607;-60
2021/12/25 02:53:49;;;;;;;;;3.00;3.00;;;;;17.04;61.25;100699.00;5051219;28;9113;-59
2021/12/25 02:56:14;;;;;;;;;2.33;2.33;;;;;17.05;61.55;100706.03;5050794;28;8913;-61
2021/12/25 02:58:40;;;;;;;;;3.00;3.00;;;;;17.04;61.37;100699.88;5050954;28;8782;-61
2021/12/25 03:01:13;;;;;;;;;3.33;3.33;;;;;17.04;61.68;100705.16;5051361;28;8791;-60
2021/12/25 03:03:39;;;;;;;;;2.67;2.67;;;;;17.03;61.44;100700.75;5050614;28;8770;-60
2021/12/25 03:06:07;;;;;;;;;3.00;3.00;;;;;17.06;61.48;100695.44;5051187;28;9370;-60
2021/12/25 03:08:34;;;;;;;;;1.33;1.33;;;;;17.09;61.20;100702.47;5050825;28;9137;-61
2021/12/25 03:11:02;;;;;;;;;2.00;2.00;;;;;17.07;61.32;100698.97;5050913;28;9926;-60
2021/12/25 03:15:56;;;;;;;;;2.33;2.33;;;;;17.02;61.01;100714.81;5050007;28;10016;-60
2021/12/25 03:18:24;;;;;;;;;2.33;2.33;;;;;16.99;61.34;100716.59;5051150;28;9097;-60
2021/12/25 03:20:56;;;;;;;;;3.67;2.67;;;;;17.04;61.42;100718.34;5050893;28;8768;-60
2021/12/25 03:23:24;;;;;;;;;3.33;2.00;;;;;17.03;61.28;100716.56;5050399;28;9067;-61
2021/12/25 03:25:52;;;;;;;;;3.00;2.00;;;;;17.04;61.09;100725.38;5050550;28;9175;-61
2021/12/25 03:28:21;;;;;;;;;2.67;2.67;;;;;17.01;61.19;100728.91;5050883;28;9094;-60
2021/12/25 03:30:46;;;;;;;;;2.00;2.00;;;;;17.03;61.25;100726.25;5050063;28;9899;-61
2021/12/25 03:33:15;;;;;;;;;2.00;2.00;;;;;17.03;61.09;100727.13;5051062;28;9109;-60
2021/12/25 03:35:40;;;;;;;;;1.67;1.67;;;;;17.04;61.08;100742.06;5050463;28;8828;-61
2021/12/25 03:38:08;;;;;;;;;2.00;2.00;;;;;17.06;60.69;100750.00;5049899;28;9263;-61
2021/12/25 03:40:34;;;;;;;;;2.00;2.00;;;;;17.02;60.91;100742.97;5050576;28;8785;-61
2021/12/25 03:43:00;;;;;;;;;2.00;2.00;;;;;17.01;60.90;100738.59;5050571;28;9179;-60
2021/12/25 03:45:29;;;;;;;;;2.00;2.00;;;;;17.00;60.74;100745.63;5049893;28;11394;-60
2021/12/25 03:48:05;;;;;;;;;2.00;2.00;;;;;17.03;60.63;100750.88;5050531;28;9172;-60
2021/12/25 03:58:52;;;;;;;;;3.67;3.67;;;;;16.96;60.64;100743.88;5049657;28;9109;-60
2021/12/25 04:04:25;;;;;;;;;3.67;3.67;;;;;16.93;60.76;100751.81;5050226;28;8968;-61
2021/12/25 04:07:06;;;;;;;;;2.00;2.00;;;;;16.96;60.79;100764.09;5049429;28;9201;-60
2021/12/25 04:09:33;;;;;;;;;3.00;3.00;;;;;16.93;60.68;100757.09;5050548;28;9164;-61
2021/12/25 04:12:03;;;;;;;;;2.67;2.67;;;;;17.00;60.40;100757.91;5049693;28;9248;-60
2021/12/25 04:14:28;;;;;;;;;2.33;2.33;;;;;16.99;60.55;100761.44;5050438;28;9257;-61
2021/12/25 04:16:54;;;;;;;;;2.00;2.00;;;;;16.94;60.30;100758.84;5049892;28;9097;-61
2021/12/25 04:19:20;;;;;;;;;3.33;2.67;;;;;16.99;60.50;100769.34;5049691;28;8766;-60
2021/12/25 04:21:54;;;;;;;;;2.00;2.00;;;;;17.08;60.11;100775.47;5050066;28;8762;-61
2021/12/25 04:24:21;;;;;;;;;3.00;3.00;;;;;17.03;60.43;100776.34;5050477;28;8884;-60
2021/12/25 04:26:48;;;;;;;;;2.00;2.00;;;;;16.99;60.56;100778.13;5049333;28;9144;-61
2021/12/25 04:29:35;;;;;;;;;2.67;2.00;;;;;16.99;60.21;100778.13;5050420;28;9102;-60
2021/12/25 04:32:30;;;;;;;;;3.00;3.00;;;;;16.94;60.31;100779.94;5050107;28;9121;-61
2021/12/25 05:03:02;;;;;;;;;3.00;3.00;;;;;16.91;59.92;100807.19;5052418;28;9217;-61
2021/12/25 05:05:28;;;;;;;;;2.00;2.00;;;;;16.91;59.96;100809.81;5053530;28;9261;-61
2021/12/25 05:07:54;;;;;;;;;3.00;3.00;;;;;16.96;60.00;100811.56;5053209;28;9025;-60
2021/12/25 05:10:19;;;;;;;;;2.33;2.00;;;;;16.94;59.93;100819.50;5052660;28;9793;-61
2021/12/25 05:12:44;;;;;;;;;2.33;2.33;;;;;16.97;60.09;100815.97;5052959;28;8800;-61
2021/12/25 05:15:10;;;;;;;;;2.00;2.00;;;;;16.94;60.03;100816.00;5052233;28;8888;-61
2021/12/25 05:17:35;;;;;;;;;3.00;3.00;;;;;16.91;60.04;100816.84;5053251;28;8765;-61
2021/12/25 05:20:00;;;;;;;;;2.00;2.00;;;;;16.92;60.05;100827.41;5053015;28;8777;-61
2021/12/25 05:22:26;;;;;;;;;3.33;2.00;;;;;16.90;59.72;100831.84;5052370;28;8782;-61
2021/12/25 05:24:52;;;;;;;;;3.00;3.00;;;;;16.91;59.87;100822.13;5052852;28;8908;-61
2021/12/25 05:27:21;;;;;;;;;2.00;2.00;;;;;16.95;59.78;100823.00;5052908;28;9248;-60
2021/12/25 05:29:47;;;;;;;;;2.33;2.33;;;;;16.90;59.77;100823.03;5051732;28;8777;-61
2021/12/25 05:32:14;;;;;;;;;5.00;4.00;;;;;16.89;59.92;100830.06;5053195;28;9187;-60
2021/12/25 05:34:39;;;;;;;;;2.00;2.00;;;;;16.91;59.81;100836.19;5052582;28;8773;-61
2021/12/25 05:37:05;;;;;;;;;2.33;2.00;;;;;16.88;59.94;100837.97;5052361;28;9937;-59
2021/12/25 05:39:30;;;;;;;;;3.00;2.33;;;;;16.87;59.66;100838.88;5052861;28;8796;-59
2021/12/25 05:41:57;;;;;;;;;2.00;2.00;;;;;16.87;59.91;100842.38;5052413;28;8867;-59
2021/12/25 05:44:22;;;;;;;;;2.67;2.67;;;;;16.86;59.79;100843.28;5051841;28;9679;-59
2021/12/25 05:46:48;;;;;;;;;3.00;2.33;;;;;16.88;59.63;100843.25;5051252;28;9461;-59
2021/12/25 05:49:20;;;;;;;;;2.00;2.00;;;;;16.87;59.59;100850.28;5052711;28;8839;-59
2021/12/25 05:51:46;;;;;;;;;3.00;3.00;;;;;16.89;59.58;100842.38;5050722;28;8804;-59
2021/12/25 05:54:11;;;;;;;;;3.00;3.00;;;;;16.87;59.57;100849.44;5052581;28;9155;-59
2021/12/25 05:56:36;;;;;;;;;2.33;2.33;;;;;16.89;59.56;100852.91;5052468;28;8817;-59
2021/12/25 05:59:02;;;;;;;;;3.00;3.00;;;;;16.88;59.72;100856.44;5051517;28;8811;-59
2021/12/25 06:01:28;;;;;;;;;2.33;2.33;;;;;16.90;59.29;100858.22;5052385;28;8859;-59
2021/12/25 06:03:53;;;;;;;;;2.00;2.00;;;;;16.86;59.38;100859.09;5052106;28;8773;-59
2021/12/25 06:06:18;;;;;;;;;3.00;3.00;;;;;16.89;59.33;100866.09;5051651;28;8793;-59
2021/12/25 06:08:44;;;;;;;;;2.67;2.67;;;;;16.89;59.39;100869.63;5051997;28;8792;-59
2021/12/25 06:11:09;;;;;;;;;2.67;2.67;;;;;16.88;59.35;100872.25;5052383;28;8804;-59
2021/12/25 06:13:43;;;;;;;;;3.00;3.00;;;;;16.83;59.37;100869.63;5051266;28;8892;-59
2021/12/25 06:16:08;;;;;;;;;4.00;4.00;;;;;16.84;59.68;100868.75;5052171;28;8769;-59
2021/12/25 06:18:34;;;;;;;;;3.00;3.00;;;;;16.85;59.43;100872.28;5051341;28;9770;-59
2021/12/25 06:21:05;;;;;;;;;3.00;3.00;;;;;16.87;59.19;100876.66;5051526;28;9606;-59
2021/12/25 06:23:30;;;;;;;;;2.00;2.00;;;;;16.84;59.16;100881.06;5051888;28;8874;-59
2021/12/25 06:25:56;;;;;;;;;2.00;2.00;;;;;16.87;59.52;100894.25;5050489;28;10209;-59
2021/12/25 06:28:21;;;;;;;;;1.67;1.67;;;;;16.87;59.11;100888.97;5051710;28;8820;-60
2021/12/25 06:30:49;;;;;;;;;3.00;3.00;;;;;16.86;59.24;100903.03;5051769;28;8793;-59
2021/12/25 06:33:14;;;;;;;;;2.00;2.00;;;;;16.85;59.14;100898.63;5051078;28;8766;-59
2021/12/25 06:35:39;;;;;;;;;4.00;2.33;;;;;16.86;59.10;100889.84;5051388;28;9143;-61
2021/12/25 06:38:05;;;;;;;;;2.00;2.00;;;;;16.84;59.37;100899.50;5051476;28;8790;-61
2021/12/25 06:40:30;;;;;;;;;2.00;2.00;;;;;16.81;59.12;100894.25;5050658;28;8777;-59
2021/12/25 06:42:56;;;;;;;;;3.33;3.33;;;;;16.79;59.56;100888.13;5051056;28;9514;-59
2021/12/25 06:45:24;;;;;;;;;3.00;3.00;;;;;16.81;59.35;100892.50;5051632;28;8790;-60
2021/12/25 06:47:49;;;;;;;;;1.00;1.00;;;;;16.80;59.16;100890.75;5050524;28;8854;-60
2021/12/25 06:50:15;;;;;;;;;2.00;2.00;;;;;16.80;59.25;100903.03;5051586;28;8946;-60
2021/12/25 06:52:41;;;;;;;;;3.00;2.00;;;;;16.80;59.35;100903.91;5051083;28;8781;-60
2021/12/25 06:55:07;;;;;;;;;2.00;2.00;;;;;16.80;58.98;100898.66;5050782;28;9518;-60
2021/12/25 06:57:32;;;;;;;;;2.67;2.67;;;;;16.75;59.26;100900.44;5051206;28;8933;-60
2021/12/25 06:59:58;;;;;;;;;3.00;3.00;;;;;16.81;59.32;100900.41;5050974;28;8778;-60
2021/12/25 07:02:23;;;;;;;;;1.00;1.00;;;;;16.82;59.06;100901.28;5050711;28;8778;-60
2021/12/25 07:04:48;;;;;;;;;4.00;2.00;;;;;16.83;58.76;100906.53;5050878;28;8774;-60
2021/12/25 07:07:16;;;;;;;;;2.67;2.67;;;;;16.82;59.07;100894.25;5051025;28;8800;-60
2021/12/25 07:09:41;;;;;;;;;3.00;3.00;;;;;16.79;58.78;100910.09;5050321;28;8782;-60
2021/12/25 07:12:07;;;;;;;;;2.00;2.00;;;;;16.78;58.91;100918.88;5051327;28;9885;-60
2021/12/25 07:14:32;;;;;;;;;2.00;2.00;;;;;16.78;59.07;100925.91;5050781;28;8774;-60
2021/12/25 07:16:58;;;;;;;;;1.00;1.00;;;;;16.81;58.91;100923.25;5049997;28;8793;-60
2021/12/25 07:19:26;;;;;;;;;0.00;0.00;;;;;16.78;58.77;100931.19;5050911;28;8758;-60
2021/12/25 07:21:51;;;;;;;;;2.33;2.33;;;;;16.78;58.67;100925.91;5049705;28;8772;-60
2021/12/25 07:24:16;;;;;;;;;2.00;2.00;;;;;16.78;59.03;100928.56;5051097;28;9129;-60
2021/12/25 07:26:42;;;;;;;;;1.33;1.33;;;;;16.78;58.89;100939.09;5050815;28;8798;-60
2021/12/25 07:29:07;;;;;;;;;1.00;1.00;;;;;16.77;58.57;100935.56;5050409;28;8844;-60
2021/12/25 07:31:33;;;;;;;;;2.00;2.00;;;;;16.72;58.69;100929.44;5051108;28;8758;-60
2021/12/25 07:33:58;;;;;;;;;2.00;2.00;;;;;16.75;58.81;100936.47;5049460;28;9455;-59
2021/12/25 07:36:24;;;;;;;;;2.00;2.00;;;;;16.78;58.75;100933.81;5049008;28;8810;-60
2021/12/25 07:38:50;;;;;;;;;1.00;1.00;;;;;16.81;58.67;100932.06;5050331;28;8758;-60
2021/12/25 07:41:16;;;;;;;;;1.00;1.00;;;;;16.77;58.29;100945.25;5051117;28;8778;-60
2021/12/25 07:43:41;;;;;;;;;2.00;2.00;;;;;16.75;58.42;100942.63;5049458;28;9010;-60
2021/12/25 07:46:06;;;;;;;;;2.00;1.00;;;;;16.75;58.55;100945.25;5049447;28;8826;-60
2021/12/25 07:48:33;;;;;;;;;1.00;1.00;;;;;16.75;58.75;100954.94;5051120;28;8758;-60
2021/12/25 07:51:02;;;;;;;;;1.00;1.00;;;;;16.80;58.34;100947.88;5049694;28;8766;-60
2021/12/25 07:53:27;;;;;;;;;1.00;1.00;;;;;16.76;58.50;100952.28;5050544;28;8921;-60
2021/12/25 07:55:53;;;;;;;;;1.00;1.00;;;;;16.73;58.39;100960.19;5048773;28;9110;-60
2021/12/25 07:58:18;;;;;;;;;1.00;1.00;;;;;16.75;58.44;100966.34;5050001;28;8762;-60
2021/12/25 08:00:46;;;;;;;;;1.00;1.00;;;;;16.72;58.26;100968.97;5050402;28;8880;-59
2021/12/25 08:03:13;;;;;;;;;1.00;1.00;;;;;16.76;58.18;100972.47;5050632;28;8785;-60
2021/12/25 08:05:38;;;;;;;;;1.00;1.00;;;;;16.73;58.34;100986.56;5048421;28;9309;-59
2021/12/25 08:08:04;;;;;;;;;1.00;1.00;;;;;16.72;58.35;100976.88;5050309;28;9098;-59
2021/12/25 08:10:31;;;;;;;;;2.00;2.00;;;;;16.67;58.36;100973.41;5052352;28;9509;-59
2021/12/25 08:12:58;;;;;;;;;0.67;0.67;;;;;16.72;58.42;100978.66;5053171;28;8813;-59
2021/12/25 08:15:25;;;;;;;;;1.00;1.00;;;;;16.73;57.92;100981.28;5052911;28;8966;-60
2021/12/25 08:17:52;;;;;;;;;1.00;1.00;;;;;16.72;57.91;100979.53;5054292;28;8850;-59
2021/12/25 08:20:18;;;;;;;;;1.00;1.00;;;;;16.74;58.09;100980.41;5053480;28;8804;-60
2021/12/25 08:22:44;;;;;;;;;0.50;0.50;;;;;16.70;58.14;100981.28;5053788;28;9056;-61
2021/12/25 08:25:11;;;;;;;;;1.00;1.00;;;;;16.78;58.04;100981.28;5053311;28;8841;-61
2021/12/25 08:27:38;;;;;;;;;1.33;1.33;;;;;16.78;57.99;100981.28;5054067;28;10887;-60
2021/12/25 08:30:12;;;;;;;;;1.67;1.00;;;;;16.78;57.75;100986.56;5053635;28;8940;-60
2021/12/25 08:32:39;;;;;;;;;1.00;1.00;;;;;16.78;57.64;100994.47;5053411;28;9027;-59
2021/12/25 08:35:05;;;;;;;;;1.25;1.25;;;;;16.79;57.66;101002.38;5053930;28;8847;-59
2021/12/25 08:37:31;;;;;;;;;1.00;1.00;;;;;16.80;57.32;101001.47;5054015;28;8777;-59
2021/12/25 08:39:57;;;;;;;;;1.00;1.00;;;;;16.80;57.41;101001.47;5053013;28;8887;-59
2021/12/25 08:42:23;;;;;;;;;1.00;1.00;;;;;16.70;57.74;100991.84;5053751;28;8829;-59
2021/12/25 08:47:26;;;;;;;;;1.00;1.00;;;;;16.85;57.90;101022.59;5053148;28;8778;-60
2021/12/25 08:49:54;;;;;;;;;1.00;1.00;;;;;16.86;57.83;101024.34;5053445;28;9679;-59
2021/12/25 08:52:21;;;;;;;;;1.00;1.00;;;;;16.89;58.48;101033.13;5053468;28;9150;-59
2021/12/25 08:54:50;;;;;;;;;1.00;1.00;;;;;16.91;58.93;101034.00;5052742;28;9045;-59
2021/12/25 08:57:17;;;;;;;;;2.00;1.00;;;;;16.94;59.30;101037.53;5053382;28;8876;-59
2021/12/25 08:59:43;;;;;;;;;3.00;2.00;;;;;16.83;58.46;101043.66;5052814;28;9175;-60
2021/12/25 09:02:13;;;;;;;;;2.00;1.00;;;;;16.46;55.14;101041.88;5052750;28;9174;-59
2021/12/25 09:04:40;;;;;;;;;1.00;1.00;;;;;16.14;55.21;101039.22;5053431;28;9103;-59
2021/12/25 09:07:06;;;;;;;;;1.33;1.33;;;;;16.01;51.83;101039.19;5053673;28;9019;-59
2021/12/25 09:09:32;;;;;;;;;3.00;2.00;;;;;15.72;50.69;101036.44;5051618;28;9126;-58
2021/12/25 09:11:57;;;;;;;;;1.00;1.00;;;;;15.43;47.76;101036.31;5052613;28;9890;-59
2021/12/25 09:14:24;;;;;;;;;1.33;0.67;;;;;15.55;48.53;101036.41;5051839;28;9516;-59
2021/12/25 09:16:49;;;;;;;;;2.00;1.00;;;;;15.88;49.29;101033.00;5052525;28;8773;-59
2021/12/25 09:19:15;;;;;;;;;0.67;0.67;;;;;16.23;49.77;101036.56;5052976;28;9035;-73
2021/12/25 09:21:40;;;;;;;;;1.00;0.67;;;;;16.52;50.03;101044.53;5051808;28;8770;-59
2021/12/25 09:24:06;;;;;;;;;1.00;1.00;;;;;16.58;50.36;101046.31;5051883;28;8805;-59
2021/12/25 09:26:31;;;;;;;;;2.33;1.00;;;;;16.71;50.55;101038.44;5053058;28;8828;-59
2021/12/25 09:28:57;;;;;;;;;1.67;1.00;;;;;16.78;50.20;101049.84;5051696;28;8908;-59
2021/12/25 09:31:22;;;;;;;;;0.33;0.00;;;;;16.82;50.31;101052.47;5052773;28;8872;-59
2021/12/25 09:33:49;;;;;;;;;0.00;0.00;;;;;16.86;50.54;101043.69;5050946;28;8790;-60
2021/12/25 09:36:15;;;;;;;;;0.33;0.33;;;;;16.92;50.29;101050.69;5051188;28;8801;-61
2021/12/25 09:38:40;;;;;;;;;0.67;0.67;;;;;16.95;50.38;101053.31;5052675;28;9019;-60
2021/12/25 09:41:06;;;;;;;;;1.33;1.00;;;;;17.01;50.46;101055.97;5050622;28;8789;-60
2021/12/25 09:43:32;;;;;;;;;0.00;0.00;;;;;16.99;50.34;101055.09;5051520;28;8774;-60
2021/12/25 09:45:57;;;;;;;;;1.00;1.00;;;;;17.03;50.64;101053.31;5051105;28;8857;-60
2021/12/25 09:48:22;;;;;;;;;1.00;1.00;;;;;17.06;50.65;101061.25;5051156;28;9553;-59
2021/12/25 09:50:49;;;;;;;;;1.00;1.00;;;;;17.07;50.73;101065.63;5051381;28;8772;-60
2021/12/25 09:53:17;;;;;;;;;2.00;1.00;;;;;17.08;50.87;101070.91;5052456;28;8765;-60
2021/12/25 09:55:43;;;;;;;;;0.00;0.00;;;;;17.06;50.91;101056.81;5051303;28;8879;-59
2021/12/25 09:58:08;;;;;;;;;0.25;0.25;;;;;17.09;51.42;101064.75;5051413;28;9037;-59
2021/12/25 10:00:37;;;;;;;;;1.00;1.00;;;;;17.10;51.17;101063.84;5051535;28;8879;-59
2021/12/25 10:03:02;;;;;;;;;0.00;0.00;;;;;17.10;51.11;101066.50;5050372;28;9568;-60
2021/12/25 10:05:41;;;;;;;;;0.00;0.00;;;;;17.11;51.05;101056.81;5050695;28;8975;-60
2021/12/25 10:08:11;;;;;;;;;0.00;0.00;;;;;17.13;51.40;101058.59;5052127;28;9655;-62
2021/12/25 10:10:47;;;;;;;;;0.00;0.00;;;;;17.19;51.45;101068.25;5051233;28;8851;-61
2021/12/25 10:13:30;;;;;;;;;0.00;0.00;;;;;17.18;51.34;101064.72;5051714;28;8898;-60
2021/12/25 10:16:00;;;;;;;;;0.00;0.00;;;;;17.16;51.70;101058.59;5051946;28;8778;-61
2021/12/25 10:18:34;;;;;;;;;1.00;1.00;;;;;17.19;51.46;101052.41;5051329;28;8867;-61
2021/12/25 10:21:35;;;;;;;;;1.67;1.00;;;;;17.17;51.26;101055.03;5050340;28;8948;-60
2021/12/25 10:24:09;;;;;;;;;0.00;0.00;;;;;17.14;51.51;101054.19;4990007;28;9986;-61
2021/12/25 10:26:37;;;;;;;;;0.00;0.00;;;;;17.21;51.61;101061.19;5040005;28;9082;-61
2021/12/25 10:29:34;;;;;;;;;0.33;0.33;;;;;17.21;51.33;101061.19;5050960;28;8997;-61
2021/12/25 10:32:14;;;;;;;;;0.00;0.00;;;;;17.23;52.16;101062.09;5016793;28;8966;-60
2021/12/25 10:34:39;;;;;;;;;1.00;1.00;;;;;17.22;51.81;101055.03;5050846;28;9050;-61
2021/12/25 10:37:11;;;;;;;;;0.00;0.00;;;;;17.22;51.84;101057.69;5049898;28;9008;-61
2021/12/25 10:39:36;;;;;;;;;0.00;0.00;;;;;17.25;52.13;101055.03;5049723;28;8757;-60
2021/12/25 10:42:12;;;;;;;;;1.00;0.00;;;;;17.25;51.92;101055.91;5050348;28;8786;-61
2021/12/25 10:44:54;;;;;;;;;0.50;0.50;;;;;17.33;51.82;101061.19;5051509;28;8758;-60
2021/12/25 10:47:20;;;;;;;;;0.00;0.00;;;;;17.31;51.74;101060.31;5050753;28;8888;-61
2021/12/25 10:50:09;;;;;;;;;1.67;1.67;;;;;17.34;51.73;101062.94;5050066;28;8991;-60
2021/12/25 10:52:41;;;;;;;;;1.00;1.00;;;;;17.31;51.86;101057.69;5050952;28;8809;-60
2021/12/25 10:55:25;;;;;;;;;0.00;0.00;;;;;17.33;51.69;101066.44;5050448;28;8862;-61
2021/12/25 10:57:52;;;;;;;;;0.00;0.00;;;;;17.35;51.64;101059.44;5050658;28;8855;-61
2021/12/25 11:00:20;;;;;;;;;0.00;0.00;;;;;17.40;52.08;101055.00;5049059;28;8876;-61
2021/12/25 11:03:00;;;;;;;;;1.00;0.00;;;;;17.40;52.10;101052.34;5050840;28;9037;-61
2021/12/25 11:05:29;;;;;;;;;0.00;0.00;;;;;17.40;52.02;101053.25;5051031;28;8963;-61
2021/12/25 11:08:22;;;;;;;;;0.00;0.00;;;;;17.43;51.67;101056.78;5050071;28;8990;-61
2021/12/25 11:10:54;;;;;;;;;0.00;0.00;;;;;17.42;52.14;101055.88;5047881;28;9129;-60
2021/12/25 11:13:31;;;;;;;;;1.00;1.00;;;;;17.44;52.17;101054.09;5050430;28;8944;-60
2021/12/25 11:16:22;;;;;;;;;0.33;0.33;;;;;17.44;51.75;101062.03;5050165;28;8991;-61
2021/12/25 11:19:05;;;;;;;;;0.33;0.33;;;;;17.45;51.97;101063.78;5049006;28;8968;-60
2021/12/25 11:21:32;;;;;;;;;0.00;0.00;;;;;17.47;51.87;101069.06;5049791;28;9041;-61
2021/12/25 11:24:08;;;;;;;;;0.00;0.00;;;;;17.48;52.00;101061.13;5050586;28;8971;-60
2021/12/25 11:26:37;;;;;;;;;0.00;0.00;;;;;17.47;51.86;101067.28;5050498;28;9045;-60
2021/12/25 11:29:05;;;;;;;;;0.00;0.00;;;;;17.46;52.02;101064.66;5048544;28;9016;-60
2021/12/25 11:31:31;;;;;;;;;0.00;0.00;;;;;17.47;52.22;101059.38;5050916;28;8971;-61
2021/12/25 11:33:59;;;;;;;;;1.00;1.00;;;;;17.56;51.99;101061.09;5050746;28;9009;-60
2021/12/25 11:36:25;;;;;;;;;0.00;0.00;;;;;17.55;52.04;101054.06;5049808;28;8816;-60
2021/12/25 11:38:52;;;;;;;;;0.00;0.00;;;;;17.51;51.91;101060.25;5048832;28;8938;-60
2021/12/25 11:41:18;;;;;;;;;1.00;1.00;;;;;17.49;51.91;101054.97;5049706;28;8836;-60
2021/12/25 11:43:46;;;;;;;;;0.00;0.00;;;;;17.55;52.02;101059.34;5050182;28;9117;-60
2021/12/25 11:46:14;;;;;;;;;0.00;0.00;;;;;17.49;52.16;101046.19;5054915;28;8963;-60
2021/12/25 11:48:41;;;;;;;;;0.00;0.00;;;;;17.54;52.19;101055.84;5052727;28;8956;-60
2021/12/25 11:51:22;;;;;;;;;0.00;0.00;;;;;17.53;52.33;101056.72;5053854;28;8935;-60
2021/12/25 11:54:12;;;;;;;;;0.00;0.00;;;;;17.50;52.32;101047.94;5054397;28;8955;-60
2021/12/25 11:57:00;;;;;;;;;0.00;0.00;;;;;17.52;52.45;101052.31;5053697;28;8856;-60
2021/12/25 11:59:25;;;;;;;;;0.00;0.00;;;;;17.49;52.47;101047.06;5052653;28;8948;-60
2021/12/25 12:01:53;;;;;;;;;0.00;0.00;;;;;17.50;52.59;101042.66;5054256;28;9901;-60
2021/12/25 12:04:26;;;;;;;;;0.00;0.00;;;;;17.50;52.32;101045.31;5053897;28;8788;-60
2021/12/25 12:07:06;;;;;;;;;0.00;0.00;;;;;17.49;52.52;101041.78;5054200;28;8893;-60
2021/12/25 12:09:46;;;;;;;;;0.00;0.00;;;;;17.45;52.46;101044.44;5051611;28;9700;-61
2021/12/25 12:12:28;;;;;;;;;0.00;0.00;;;;;17.41;52.39;101048.84;5051586;28;8800;-61
2021/12/25 12:15:23;;;;;;;;;2.00;2.00;;;;;17.37;52.80;101047.09;5052827;28;8943;-61
2021/12/25 12:17:48;;;;;;;;;0.00;0.00;;;;;17.35;52.46;101039.19;5053333;28;8801;-61
2021/12/25 12:20:40;;;;;;;;;0.00;0.00;;;;;17.44;52.58;101040.91;5053796;28;8804;-61
2021/12/25 12:23:47;;;;;;;;;0.00;0.00;;;;;17.49;52.23;101035.63;5053951;28;8893;-61
2021/12/25 12:26:13;;;;;;;;;0.00;0.00;;;;;17.47;52.54;101032.97;5051502;28;8905;-60
2021/12/25 12:28:52;;;;;;;;;0.00;0.00;;;;;17.55;52.20;101028.53;5053435;28;9128;-60
2021/12/25 12:31:46;;;;;;;;;0.00;0.00;;;;;17.54;52.19;101034.72;5053259;28;9009;-60
2021/12/25 12:34:29;;;;;;;;;1.00;1.00;;;;;17.56;52.18;101030.31;5052815;28;9118;-61
2021/12/25 12:37:27;;;;;;;;;0.00;0.00;;;;;17.51;52.53;101026.78;5052945;28;9133;-60
2021/12/25 12:39:52;;;;;;;;;0.00;0.00;;;;;17.51;52.64;101025.94;5018674;28;9044;-61
2021/12/25 12:42:18;;;;;;;;;0.00;0.00;;;;;17.54;52.48;101021.53;5054048;28;9163;-61
2021/12/25 12:44:43;;;;;;;;;0.00;0.00;;;;;17.55;52.70;101017.97;5051721;28;8809;-60
2021/12/25 12:47:14;;;;;;;;;0.00;0.00;;;;;17.59;52.27;101014.47;5052328;28;9411;-60
2021/12/25 12:49:45;;;;;;;;;0.00;0.00;;;;;17.57;52.55;101011.00;5053294;28;8820;-60
2021/12/25 12:52:36;;;;;;;;;0.00;0.00;;;;;17.57;52.45;100999.53;5053862;28;9010;-61